createdAt,value
2023-12-04T00:01:19.544Z,7.55
2023-12-04T00:03:47.074Z,10.73
2023-12-04T00:06:14.642Z,7.72
2023-12-04T00:08:42.087Z,7.63
2023-12-04T00:11:09.403Z,7.38
2023-12-04T00:13:36.745Z,7.68
2023-12-04T00:16:04.232Z,7.43
2023-12-04T00:18:31.677Z,9.15
2023-12-04T00:20:58.787Z,9.07
2023-12-04T00:23:25.949Z,8.43
2023-12-04T00:25:52.962Z,8.23
2023-12-04T00:28:19.906Z,6.85
2023-12-04T00:30:48.036Z,8.93
2023-12-04T00:33:15.177Z,8.07
2023-12-04T00:35:42.570Z,8.50
2023-12-04T00:38:09.629Z,8.50
2023-12-04T00:40:36.709Z,8.43
2023-12-04T00:43:03.817Z,7.07
2023-12-04T00:45:30.911Z,7.28
2023-12-04T00:47:58.452Z,7.50
2023-12-04T00:50:25.568Z,8.70
2023-12-04T00:52:52.700Z,7.93
2023-12-04T00:55:20.447Z,8.57
2023-12-04T00:57:47.907Z,9.27
2023-12-04T01:00:15.939Z,7.13
2023-12-04T01:02:43.038Z,8.45
2023-12-04T01:05:10.164Z,8.23
2023-12-04T01:07:37.282Z,8.23
2023-12-04T01:10:05.536Z,7.60
2023-12-04T01:12:32.596Z,6.63
2023-12-04T01:14:59.675Z,6.47
2023-12-04T01:17:26.713Z,8.13
2023-12-04T01:19:53.721Z,7.45
2023-12-04T01:22:20.767Z,8.40
2023-12-04T01:24:47.767Z,7.82
2023-12-04T01:27:14.730Z,10.20
2023-12-04T01:29:41.777Z,6.53
2023-12-04T01:32:08.877Z,8.45
2023-12-04T01:34:35.846Z,7.25
2023-12-04T01:37:02.879Z,7.38
2023-12-04T01:39:29.995Z,7.15
2023-12-04T01:41:57.158Z,6.68
2023-12-04T01:44:25.852Z,8.25
2023-12-04T01:46:53.009Z,7.18
2023-12-04T01:49:20.221Z,6.97
2023-12-04T01:51:47.814Z,7.45
2023-12-04T01:54:15.130Z,8.40
2023-12-04T01:56:42.508Z,7.13
2023-12-04T01:59:09.537Z,7.80
2023-12-04T02:01:38.248Z,8.35
2023-12-04T02:04:05.995Z,7.82
2023-12-04T02:06:33.337Z,5.93
2023-12-04T02:09:00.665Z,7.03
2023-12-04T02:11:27.658Z,7.78
2023-12-04T02:13:54.766Z,7.28
2023-12-04T02:16:25.791Z,8.98
2023-12-04T02:18:53.132Z,6.88
2023-12-04T02:21:20.217Z,6.35
2023-12-04T02:23:52.040Z,7.30
2023-12-04T02:26:24.640Z,6.55
2023-12-04T02:28:56.141Z,7.90
2023-12-04T02:31:24.288Z,7.22
2023-12-04T02:33:53.898Z,6.05
2023-12-04T02:36:22.252Z,7.53
2023-12-04T02:38:49.340Z,7.55
2023-12-04T02:41:18.404Z,7.13
2023-12-04T02:43:45.889Z,6.10
2023-12-04T02:46:12.980Z,7.57
2023-12-04T02:48:40.114Z,6.97
2023-12-04T02:51:07.416Z,6.80
2023-12-04T02:53:34.460Z,8.07
2023-12-04T02:56:01.829Z,8.10
2023-12-04T02:58:28.862Z,6.28
2023-12-04T03:00:55.994Z,7.13
2023-12-04T03:03:23.107Z,6.18
2023-12-04T03:05:50.136Z,7.20
2023-12-04T03:08:17.383Z,4.97
2023-12-04T03:10:44.426Z,6.32
2023-12-04T03:13:11.489Z,6.25
2023-12-04T03:15:38.684Z,7.00
2023-12-04T03:18:05.900Z,6.15
2023-12-04T03:20:34.174Z,6.05
2023-12-04T03:23:01.268Z,5.43
2023-12-04T03:25:28.244Z,7.18
2023-12-04T03:27:55.382Z,6.57
2023-12-04T03:30:22.606Z,5.70
2023-12-04T03:32:49.678Z,5.45
2023-12-04T03:35:17.219Z,7.30
2023-12-04T03:37:44.340Z,7.15
2023-12-04T03:40:11.870Z,5.82
2023-12-04T03:42:38.946Z,7.38
2023-12-04T03:45:06.723Z,7.32
2023-12-04T03:47:33.798Z,5.88
2023-12-04T03:50:00.878Z,6.07
2023-12-04T03:52:27.878Z,7.15
2023-12-04T03:54:54.853Z,6.43
2023-12-04T03:57:21.859Z,5.65
2023-12-04T03:59:49.004Z,7.53
2023-12-04T04:02:15.995Z,5.72
2023-12-04T04:04:43.041Z,6.40
2023-12-04T04:07:10.561Z,5.88
2023-12-04T04:09:37.616Z,7.22
2023-12-04T04:12:05.767Z,5.90
2023-12-04T04:14:32.888Z,7.15
2023-12-04T04:17:00.023Z,6.68
2023-12-04T04:19:27.445Z,7.90
2023-12-04T04:21:54.949Z,5.65
2023-12-04T04:24:21.980Z,6.97
2023-12-04T04:26:49.039Z,5.25
2023-12-04T04:29:16.143Z,5.78
2023-12-04T04:31:43.092Z,5.82
2023-12-04T04:34:10.293Z,6.47
2023-12-04T04:36:37.460Z,6.35
2023-12-04T04:39:04.639Z,7.20
2023-12-04T04:41:31.707Z,5.55
2023-12-04T04:43:59.417Z,6.65
2023-12-04T04:46:27.901Z,6.60
2023-12-04T04:48:55.074Z,5.88
2023-12-04T04:51:22.835Z,5.15
2023-12-04T04:53:50.068Z,5.75
2023-12-04T04:56:18.499Z,8.82
2023-12-04T04:58:45.952Z,4.65
2023-12-04T05:01:20.410Z,7.47
2023-12-04T05:03:47.494Z,6.25
2023-12-04T05:06:15.227Z,5.63
2023-12-04T05:08:42.526Z,7.38
2023-12-04T05:11:09.519Z,6.13
2023-12-04T05:13:36.555Z,5.75
2023-12-04T05:16:04.112Z,5.18
2023-12-04T05:18:31.136Z,5.57
2023-12-04T05:20:58.172Z,5.93
2023-12-04T05:23:25.280Z,5.70
2023-12-04T05:25:52.383Z,6.20
2023-12-04T05:28:19.649Z,6.38
2023-12-04T05:30:47.333Z,6.25
2023-12-04T05:33:14.472Z,6.70
2023-12-04T05:35:41.602Z,6.05
2023-12-04T05:38:09.826Z,6.97
2023-12-04T05:40:36.768Z,5.90
2023-12-04T05:43:03.811Z,6.75
2023-12-04T05:45:31.031Z,4.50
2023-12-04T05:47:58.087Z,6.90
2023-12-04T05:50:25.033Z,5.53
2023-12-04T05:52:52.362Z,5.03
2023-12-04T05:55:19.512Z,5.80
2023-12-04T05:57:46.594Z,4.70
2023-12-04T06:00:14.946Z,7.40
2023-12-04T06:02:43.722Z,4.20
2023-12-04T06:05:11.288Z,5.65
2023-12-04T06:07:38.696Z,3.90
2023-12-04T06:10:06.502Z,5.30
2023-12-04T06:12:33.758Z,6.07
2023-12-04T06:15:00.995Z,6.32
2023-12-04T06:17:28.740Z,6.47
2023-12-04T06:19:55.853Z,5.47
2023-12-04T06:22:23.363Z,6.90
2023-12-04T06:24:50.687Z,5.57
2023-12-04T06:27:21.930Z,5.18
2023-12-04T06:29:52.835Z,5.40
2023-12-04T06:32:21.347Z,4.97
2023-12-04T06:34:48.806Z,6.05
2023-12-04T06:37:17.508Z,5.50
2023-12-04T06:39:47.192Z,5.05
2023-12-04T06:42:14.599Z,6.63
2023-12-04T06:44:41.873Z,6.80
2023-12-04T06:47:13.511Z,5.78
2023-12-04T06:49:40.877Z,5.75
2023-12-04T06:52:08.073Z,6.65
2023-12-04T06:54:35.105Z,5.18
2023-12-04T06:57:02.803Z,5.20
2023-12-04T06:59:29.892Z,6.68
2023-12-04T07:01:56.946Z,5.40
2023-12-04T07:04:24.322Z,7.05
2023-12-04T07:06:52.068Z,5.22
2023-12-04T07:09:19.126Z,5.25
2023-12-04T07:11:46.236Z,5.72
2023-12-04T07:14:13.723Z,5.50
2023-12-04T07:16:44.243Z,5.10
2023-12-04T07:19:12.521Z,6.25
2023-12-04T07:21:40.525Z,5.40
2023-12-04T07:24:08.123Z,5.30
2023-12-04T07:26:36.426Z,5.78
2023-12-04T07:29:04.554Z,5.45
2023-12-04T07:31:32.297Z,5.50
2023-12-04T07:34:01.876Z,6.25
2023-12-04T07:36:29.974Z,6.10
2023-12-04T07:38:57.031Z,7.32
2023-12-04T07:41:24.215Z,14.63
2023-12-04T07:43:51.391Z,22.58
2023-12-04T07:46:18.544Z,6.45
2023-12-04T07:48:46.972Z,11.25
2023-12-04T07:51:14.383Z,8.57
2023-12-04T07:53:41.449Z,5.82
2023-12-04T07:56:09.015Z,8.70
2023-12-04T07:58:36.161Z,6.82
2023-12-04T08:01:03.377Z,5.72
2023-12-04T08:03:30.659Z,7.05
2023-12-04T08:05:57.765Z,6.72
2023-12-04T08:08:24.769Z,6.07
2023-12-04T08:10:52.005Z,4.72
2023-12-04T08:13:19.116Z,5.55
2023-12-04T08:15:46.248Z,5.68
2023-12-04T08:18:13.471Z,4.60
2023-12-04T08:20:41.568Z,6.13
2023-12-04T08:23:09.597Z,5.20
2023-12-04T08:25:40.582Z,5.60
2023-12-04T08:28:10.412Z,5.75
2023-12-04T08:30:37.695Z,5.88
2023-12-04T08:33:05.264Z,5.15
2023-12-04T08:35:32.479Z,6.00
2023-12-04T08:38:00.377Z,7.63
2023-12-04T08:40:27.619Z,5.55
2023-12-04T08:42:54.937Z,5.30
2023-12-04T08:45:21.907Z,5.82
2023-12-04T08:47:50.222Z,6.55
2023-12-04T08:50:17.911Z,5.88
2023-12-04T08:52:46.193Z,5.57
2023-12-04T08:55:13.467Z,5.35
2023-12-04T08:57:40.980Z,5.60
2023-12-04T09:00:09.806Z,5.53
2023-12-04T09:02:41.207Z,4.40
2023-12-04T09:05:14.384Z,5.88
2023-12-04T09:08:28.576Z,4.80
2023-12-04T09:10:40.818Z,5.57
2023-12-04T09:13:16.172Z,5.43
2023-12-04T09:15:43.310Z,4.95
2023-12-04T09:18:10.454Z,4.45
2023-12-04T09:20:37.962Z,4.55
2023-12-04T09:23:09.141Z,5.00
2023-12-04T09:25:37.811Z,5.65
2023-12-04T09:28:05.182Z,4.82
2023-12-04T09:30:32.272Z,5.05
2023-12-04T09:32:59.590Z,4.25
2023-12-04T09:35:27.567Z,5.50
2023-12-04T09:37:55.672Z,4.50
2023-12-04T09:40:23.789Z,4.10
2023-12-04T09:42:51.571Z,3.85
2023-12-04T09:45:20.133Z,4.90
2023-12-04T09:47:49.313Z,4.03
2023-12-04T09:50:22.785Z,4.47
2023-12-04T09:52:51.723Z,3.58
2023-12-04T09:55:19.020Z,9.25
2023-12-04T09:57:50.480Z,5.65
2023-12-04T10:00:18.181Z,4.03
2023-12-04T10:02:45.423Z,4.88
2023-12-04T10:05:12.964Z,7.45
2023-12-04T10:07:42.615Z,10.30
2023-12-04T10:10:10.295Z,4.00
2023-12-04T10:12:38.042Z,4.78
2023-12-04T10:15:09.614Z,8.82
2023-12-04T10:17:41.485Z,5.18
2023-12-04T10:20:14.206Z,4.05
2023-12-04T10:22:44.513Z,6.13
2023-12-04T10:25:19.336Z,5.20
2023-12-04T10:27:47.701Z,6.05
2023-12-04T10:30:29.440Z,5.32
2023-12-04T10:32:57.972Z,6.60
2023-12-04T10:35:25.152Z,5.43
2023-12-04T10:37:55.802Z,5.72
2023-12-04T10:40:31.044Z,4.47
2023-12-04T10:43:10.115Z,4.13
2023-12-04T10:45:38.379Z,4.93
2023-12-04T10:48:06.747Z,6.95
2023-12-04T10:50:41.562Z,4.47
2023-12-04T10:53:10.579Z,4.20
2023-12-04T10:55:38.479Z,4.60
2023-12-04T10:58:10.839Z,5.03
2023-12-04T11:00:48.516Z,5.38
2023-12-04T11:03:24.514Z,4.47
2023-12-04T11:05:57.869Z,4.45
2023-12-04T11:08:26.204Z,4.15
2023-12-04T11:10:56.519Z,4.43
2023-12-04T11:13:29.845Z,3.78
2023-12-04T11:16:02.213Z,4.95
2023-12-04T11:18:32.691Z,4.43
2023-12-04T11:21:03.273Z,4.50
2023-12-04T11:23:31.333Z,5.10
2023-12-04T11:25:58.906Z,5.22
2023-12-04T11:28:27.611Z,4.63
2023-12-04T11:30:55.496Z,6.40
2023-12-04T11:33:22.681Z,4.38
2023-12-04T11:35:51.806Z,4.18
2023-12-04T11:38:19.195Z,5.00
2023-12-04T11:40:48.265Z,5.68
2023-12-04T11:43:29.165Z,4.32
2023-12-04T11:46:26.901Z,3.88
2023-12-04T11:48:59.159Z,5.85
2023-12-04T11:51:43.588Z,11.80
2023-12-04T11:54:11.469Z,5.82
2023-12-04T11:56:38.552Z,5.72
2023-12-04T11:59:08.876Z,5.10
2023-12-04T12:01:39.335Z,5.43
2023-12-04T12:04:09.773Z,5.35
2023-12-04T12:06:36.961Z,7.45
2023-12-04T12:09:05.479Z,5.65
2023-12-04T12:11:32.724Z,4.22
2023-12-04T12:14:01.907Z,5.75
2023-12-04T12:16:29.049Z,4.57
2023-12-04T12:18:56.075Z,5.45
2023-12-04T12:21:23.784Z,4.85
2023-12-04T12:23:50.945Z,6.88
2023-12-04T12:26:18.354Z,5.90
2023-12-04T12:28:47.039Z,5.38
2023-12-04T12:31:14.202Z,5.22
2023-12-04T12:33:41.399Z,7.50
2023-12-04T12:36:10.285Z,5.32
2023-12-04T12:38:38.777Z,4.43
2023-12-04T12:41:13.665Z,5.43
2023-12-04T12:43:40.691Z,4.93
2023-12-04T12:46:08.371Z,5.00
2023-12-04T12:48:36.495Z,6.05
2023-12-04T12:51:04.261Z,7.22
2023-12-04T12:53:34.197Z,5.88
2023-12-04T12:56:02.455Z,6.97
2023-12-04T12:58:29.893Z,8.15
2023-12-04T13:00:57.724Z,6.45
2023-12-04T13:03:25.693Z,6.78
2023-12-04T13:05:52.908Z,6.13
2023-12-04T13:08:20.035Z,6.10
2023-12-04T13:10:47.149Z,6.65
2023-12-04T13:13:17.360Z,5.03
2023-12-04T13:15:44.748Z,4.88
2023-12-04T13:18:12.263Z,5.63
2023-12-04T13:20:39.348Z,6.00
2023-12-04T13:23:06.487Z,5.68
2023-12-04T13:25:35.123Z,5.90
2023-12-04T13:28:02.121Z,6.18
2023-12-04T13:30:29.731Z,4.97
2023-12-04T13:32:57.142Z,5.78
2023-12-04T13:35:24.149Z,5.50
2023-12-04T13:37:56.868Z,6.90
2023-12-04T13:40:27.672Z,5.00
2023-12-04T13:43:13.651Z,5.88
2023-12-04T13:45:40.825Z,5.03
2023-12-04T13:48:08.102Z,6.13
2023-12-04T13:50:35.142Z,5.18
2023-12-04T13:53:02.659Z,6.82
2023-12-04T13:55:58.482Z,7.43
2023-12-04T13:58:37.791Z,5.82
2023-12-04T14:03:46.211Z,4.78
2023-12-04T14:06:14.807Z,5.38
2023-12-04T14:08:42.262Z,6.93
2023-12-04T14:11:11.331Z,6.22
2023-12-04T14:13:40.587Z,6.28
2023-12-04T14:16:08.255Z,7.00
2023-12-04T14:18:35.676Z,4.30
2023-12-04T14:21:03.320Z,5.85
2023-12-04T14:23:30.340Z,5.30
2023-12-04T14:25:57.479Z,6.07
2023-12-04T14:28:29.159Z,5.63
2023-12-04T14:31:00.327Z,6.60
2023-12-04T14:33:27.425Z,5.35
2023-12-04T14:35:54.596Z,5.82
2023-12-04T14:38:21.752Z,5.95
2023-12-04T14:40:48.725Z,6.25
2023-12-04T14:43:15.875Z,6.05
2023-12-04T14:45:43.514Z,6.97
2023-12-04T14:48:10.610Z,5.28
2023-12-04T14:50:39.220Z,5.90
2023-12-04T14:53:32.163Z,4.75
2023-12-04T14:56:17.950Z,7.70
2023-12-04T14:59:05.094Z,6.15
2023-12-04T15:01:51.986Z,6.22
2023-12-04T15:04:23.665Z,5.78
2023-12-04T15:07:28.939Z,5.97
2023-12-04T15:10:14.882Z,6.40
2023-12-04T15:13:00.807Z,5.88
2023-12-04T15:15:43.039Z,5.50
2023-12-04T15:18:38.342Z,5.97
2023-12-04T15:21:06.262Z,6.28
2023-12-04T15:23:33.446Z,7.15
2023-12-04T15:26:01.139Z,6.90
2023-12-04T15:28:28.518Z,7.72
2023-12-04T15:30:57.429Z,10.18
2023-12-04T15:33:27.427Z,6.85
2023-12-04T15:35:54.935Z,6.40
2023-12-04T15:38:22.265Z,7.43
2023-12-04T15:40:49.515Z,11.15
2023-12-04T15:43:18.124Z,5.05
2023-12-04T15:45:45.582Z,6.00
2023-12-04T15:48:13.029Z,5.82
2023-12-04T15:50:40.450Z,8.82
2023-12-04T15:53:07.687Z,6.00
2023-12-04T15:55:34.817Z,9.38
2023-12-04T15:58:02.506Z,5.32
2023-12-04T16:00:29.748Z,5.90
2023-12-04T16:02:57.345Z,5.85
2023-12-04T16:05:25.491Z,5.85
2023-12-04T16:07:52.704Z,6.25
2023-12-04T16:10:20.118Z,9.05
2023-12-04T16:12:47.939Z,5.97
2023-12-04T16:15:15.131Z,8.93
2023-12-04T16:17:42.463Z,6.47
2023-12-04T16:20:13.848Z,5.43
2023-12-04T16:22:43.756Z,6.28
2023-12-04T16:25:12.564Z,6.63
2023-12-04T16:27:40.024Z,7.25
2023-12-04T16:30:08.721Z,7.53
2023-12-04T16:32:36.139Z,6.38
2023-12-04T16:35:03.390Z,7.50
2023-12-04T16:37:30.589Z,5.88
2023-12-04T16:39:57.768Z,15.30
2023-12-04T16:42:25.453Z,7.82
2023-12-04T16:44:52.968Z,8.68
2023-12-04T16:47:20.321Z,7.15
2023-12-04T16:49:49.044Z,7.22
2023-12-04T16:52:16.967Z,7.00
2023-12-04T16:54:44.134Z,7.28
2023-12-04T16:57:11.592Z,7.78
2023-12-04T16:59:39.085Z,6.63
2023-12-04T17:02:07.277Z,7.93
2023-12-04T17:04:35.144Z,13.02
2023-12-04T17:07:02.497Z,7.05
2023-12-04T17:09:29.886Z,8.27
2023-12-04T17:11:57.055Z,7.43
2023-12-04T17:14:24.248Z,9.43
2023-12-04T17:16:51.775Z,8.95
2023-12-04T17:19:19.171Z,9.05
2023-12-04T17:21:46.416Z,8.05
2023-12-04T17:24:13.645Z,8.15
2023-12-04T17:26:40.738Z,8.10
2023-12-04T17:29:08.821Z,7.80
2023-12-04T17:31:36.625Z,7.70
2023-12-04T17:34:04.465Z,9.45
2023-12-04T17:36:31.794Z,8.48
2023-12-04T17:38:58.937Z,8.52
2023-12-04T17:41:26.233Z,9.77
2023-12-04T17:43:53.399Z,8.77
2023-12-04T17:46:20.566Z,10.52
2023-12-04T17:48:49.073Z,8.95
2023-12-04T17:51:17.589Z,10.18
2023-12-04T17:53:45.024Z,9.70
2023-12-04T17:56:12.405Z,9.90
2023-12-04T17:58:39.597Z,10.65
2023-12-04T18:01:07.293Z,10.52
2023-12-04T18:03:37.058Z,10.27
2023-12-04T18:06:05.408Z,11.40
2023-12-04T18:08:35.106Z,9.73
2023-12-04T18:11:03.966Z,9.80
2023-12-04T18:13:31.151Z,10.95
2023-12-04T18:15:58.705Z,10.88
2023-12-04T18:18:26.629Z,12.40
2023-12-04T18:20:53.946Z,11.13
2023-12-04T18:23:21.078Z,14.40
2023-12-04T18:25:48.633Z,11.93
2023-12-04T18:28:17.013Z,13.10
2023-12-04T18:30:44.483Z,12.38
2023-12-04T18:33:12.078Z,12.70
2023-12-04T18:35:39.583Z,13.85
2023-12-04T18:38:19.547Z,14.38
2023-12-04T18:40:47.091Z,24.30
2023-12-04T18:43:14.527Z,16.08
2023-12-04T18:45:41.969Z,15.85
2023-12-04T18:48:11.014Z,14.18
2023-12-04T18:50:40.940Z,17.05
2023-12-04T18:53:10.978Z,14.57
2023-12-04T18:55:40.859Z,12.52
2023-12-04T18:58:11.009Z,13.35
2023-12-04T19:00:40.476Z,15.18
2023-12-04T19:03:07.839Z,15.20
2023-12-04T19:05:35.215Z,17.55
2023-12-04T19:08:03.292Z,13.85
2023-12-04T19:10:30.557Z,11.68
2023-12-04T19:12:57.712Z,11.18
2023-12-04T19:15:26.588Z,18.55
2023-12-04T19:17:53.893Z,15.57
2023-12-04T19:20:21.006Z,15.27
2023-12-04T19:22:48.257Z,16.35
2023-12-04T19:25:15.921Z,11.40
2023-12-04T19:27:43.835Z,13.93
2023-12-04T19:30:11.309Z,14.30
2023-12-04T19:32:38.583Z,14.95
2023-12-04T19:35:06.178Z,15.60
2023-12-04T19:37:33.354Z,13.68
2023-12-04T19:40:00.536Z,14.35
2023-12-04T19:42:28.910Z,11.32
2023-12-04T19:44:58.736Z,13.57
2023-12-04T19:47:27.533Z,11.35
2023-12-04T19:49:54.868Z,14.93
2023-12-04T19:52:22.880Z,14.15
2023-12-04T19:54:49.923Z,18.52
2023-12-04T19:57:16.992Z,15.95
2023-12-04T19:59:45.059Z,14.82
2023-12-04T20:02:13.990Z,13.15
2023-12-04T20:04:42.029Z,14.60
2023-12-04T20:07:09.945Z,14.95
2023-12-04T20:09:38.187Z,16.48
2023-12-04T20:12:05.986Z,15.13
2023-12-04T20:14:33.148Z,22.40
2023-12-04T20:17:00.268Z,15.95
2023-12-04T20:19:27.733Z,17.33
2023-12-04T20:21:55.089Z,23.38
2023-12-04T20:24:22.183Z,16.42
2023-12-04T20:26:50.509Z,19.05
2023-12-04T20:29:18.093Z,16.98
2023-12-04T20:31:45.145Z,14.93
2023-12-04T20:34:12.285Z,18.60
2023-12-04T20:36:40.689Z,17.17
2023-12-04T20:39:09.585Z,15.82
2023-12-04T20:41:36.656Z,15.38
2023-12-04T20:44:06.658Z,16.02
2023-12-04T20:46:33.859Z,15.77
2023-12-04T20:49:01.162Z,14.52
2023-12-04T20:51:29.045Z,15.65
2023-12-04T20:53:56.084Z,13.95
2023-12-04T20:56:25.041Z,14.82
2023-12-04T20:58:57.369Z,16.17
2023-12-04T21:01:24.561Z,13.52
2023-12-04T21:03:52.109Z,12.43
2023-12-04T21:06:19.526Z,15.07
2023-12-04T21:08:46.924Z,12.82
2023-12-04T21:11:13.966Z,10.73
2023-12-04T21:13:41.061Z,14.15
2023-12-04T21:16:08.833Z,12.25
2023-12-04T21:18:35.949Z,13.50
2023-12-04T21:21:03.366Z,14.15
2023-12-04T21:23:30.606Z,11.25
2023-12-04T21:25:58.242Z,14.05
2023-12-04T21:28:25.509Z,11.40
2023-12-04T21:30:53.802Z,10.55
2023-12-04T21:33:24.314Z,12.73
2023-12-04T21:35:52.516Z,11.18
2023-12-04T21:38:19.749Z,13.85
2023-12-04T21:40:46.857Z,14.10
2023-12-04T21:43:14.023Z,14.38
2023-12-04T21:45:41.215Z,14.27
2023-12-04T21:48:08.407Z,13.45
2023-12-04T21:50:35.714Z,20.60
2023-12-04T21:53:03.045Z,14.05
2023-12-04T21:55:30.465Z,13.50
2023-12-04T21:57:57.583Z,16.77
2023-12-04T22:00:26.230Z,15.30
2023-12-04T22:02:53.513Z,13.45
2023-12-04T22:05:20.638Z,14.48
2023-12-04T22:07:48.088Z,11.60
2023-12-04T22:10:15.185Z,14.10
2023-12-04T22:12:42.404Z,12.55
2023-12-04T22:15:10.517Z,14.25
2023-12-04T22:17:39.033Z,19.05
2023-12-04T22:20:06.770Z,11.52
2023-12-04T22:22:34.257Z,12.45
2023-12-04T22:25:01.336Z,15.02
2023-12-04T22:27:28.483Z,14.02
2023-12-04T22:29:56.224Z,12.18
2023-12-04T22:32:23.787Z,13.10
2023-12-04T22:34:51.237Z,12.90
2023-12-04T22:37:18.481Z,15.25
2023-12-04T22:39:45.617Z,13.48
2023-12-04T22:42:12.845Z,15.15
2023-12-04T22:44:39.959Z,14.23
2023-12-04T22:47:07.264Z,13.82
2023-12-04T22:49:34.412Z,13.35
2023-12-04T22:52:01.587Z,11.25
2023-12-04T22:54:28.731Z,12.63
2023-12-04T22:56:56.417Z,13.35
2023-12-04T22:59:24.136Z,15.90
2023-12-04T23:01:51.156Z,15.45
2023-12-04T23:04:19.558Z,18.27
2023-12-04T23:06:46.886Z,12.68
2023-12-04T23:09:14.001Z,13.45
2023-12-04T23:11:41.195Z,14.55
2023-12-04T23:14:08.736Z,12.52
2023-12-04T23:16:35.887Z,16.73
2023-12-04T23:19:04.897Z,15.98
2023-12-04T23:21:32.121Z,15.45
2023-12-04T23:23:59.220Z,14.30
2023-12-04T23:26:26.350Z,14.30
2023-12-04T23:28:53.635Z,13.57
2023-12-04T23:31:20.683Z,13.30
2023-12-04T23:33:48.184Z,16.25
2023-12-04T23:36:15.489Z,13.02
2023-12-04T23:38:42.558Z,13.73
2023-12-04T23:41:09.647Z,12.63
2023-12-04T23:43:36.815Z,13.43
2023-12-04T23:46:04.050Z,17.40
2023-12-04T23:48:31.293Z,14.35
2023-12-04T23:50:58.607Z,14.25
2023-12-04T23:53:25.689Z,13.15
2023-12-04T23:55:52.898Z,17.52
2023-12-04T23:58:20.209Z,14.63
